Time;durP1;ratioP1;P1;durP2;ratioP2;P2;SDS_P1;SDS_P2;PMS_P1;PMS_P2;Temp;Humidity;BMP_temperature;BMP_pressure;BME280_temperature;BME280_humidity;BME280_pressure;Samples;Min_cycle;Max_cycle;Signal;HPM_P1;HPM_P2
2024/03/24 00:01:44;;;;;;;;;;;3.60;99.90;;;2.49;100.00;97248.44;4943219;28;1408;-68
2024/03/24 00:04:10;;;;;;;;;;;3.60;99.90;;;2.51;100.00;97252.66;4989868;28;1586;-68
2024/03/24 00:06:36;;;;;;;;;;;3.60;99.90;;;2.59;100.00;97246.56;4961065;28;1806;-68
2024/03/24 00:09:02;;;;;;;;;;;3.70;99.90;;;2.59;100.00;97247.41;4964205;28;1995;-68
2024/03/24 00:11:29;;;;;;;;;;;3.60;99.90;;;2.58;100.00;97257.66;4944124;28;1534;-70
2024/03/24 00:13:55;;;;;;;;;;;3.60;99.90;;;2.64;100.00;97260.97;4959388;28;2309;-69
2024/03/24 00:16:21;;;;;;;;;;;3.60;99.90;;;2.52;100.00;97261.19;4994784;28;1547;-70
2024/03/24 00:18:47;;;;;;;;;;;3.60;99.90;;;2.58;100.00;97253.41;4960529;28;1599;-70
2024/03/24 00:21:13;;;;;;;;;;;3.50;99.90;;;2.50;100.00;97273.16;4958494;28;1431;-70
2024/03/24 00:23:39;;;;;;;;;;;3.50;99.90;;;2.58;100.00;97258.53;4957796;28;3217;-70
2024/03/24 00:26:04;;;;;;;;;;;3.50;99.90;;;2.50;100.00;97258.63;4959105;28;2460;-70
2024/03/24 00:28:30;;;;;;;;;;;3.60;99.90;;;2.49;100.00;97261.25;4959686;28;1915;-67
2024/03/24 00:30:56;;;;;;;;;;;3.50;99.90;;;2.48;100.00;97255.25;4959703;28;1722;-69
2024/03/24 00:33:22;;;;;;;;;;;3.50;99.90;;;2.46;100.00;97251.03;4958905;28;1536;-68
2024/03/24 00:35:48;;;;;;;;;;;3.50;99.90;;;2.39;100.00;97262.22;4960760;28;1858;-69
2024/03/24 00:38:14;;;;;;;;;;;3.50;99.90;;;2.49;100.00;97244.16;4960082;28;1669;-68
2024/03/24 00:40:40;;;;;;;;;;;3.60;99.90;;;2.49;100.00;97251.00;4959443;28;2575;-68
2024/03/24 00:43:06;;;;;;;;;;;3.60;99.90;;;2.43;100.00;97236.53;4958908;28;1659;-68
2024/03/24 00:45:32;;;;;;;;;;;3.50;99.90;;;2.41;100.00;97233.16;4962143;28;1729;-68
2024/03/24 00:47:57;;;;;;;;;;;3.50;99.90;;;2.41;100.00;97230.59;4960713;28;1898;-68
2024/03/24 00:50:23;;;;;;;;;;;3.50;99.90;;;2.43;100.00;97233.97;4976782;28;1590;-68
2024/03/24 00:52:49;;;;;;;;;;;3.40;99.90;;;2.45;100.00;97227.13;4961346;28;1595;-69
2024/03/24 00:55:15;;;;;;;;;;;3.30;99.90;;;2.50;100.00;97217.63;4962518;28;2338;-70
2024/03/24 00:57:41;;;;;;;;;;;3.40;99.90;;;2.47;100.00;97240.75;4944610;28;2324;-70
2024/03/24 01:00:07;;;;;;;;;;;3.30;99.90;;;2.41;100.00;97228.03;4962266;28;1544;-70
2024/03/24 01:02:33;;;;;;;;;;;3.30;99.90;;;2.43;100.00;97217.78;4962047;28;1605;-70
2024/03/24 01:05:00;;;;;;;;;;;3.40;99.90;;;2.37;100.00;97207.63;4962813;28;1587;-70
2024/03/24 01:07:29;;;;;;;;;;;3.40;99.90;;;2.38;100.00;97201.66;4963182;28;3135;-67
2024/03/24 01:09:55;;;;;;;;;;;3.30;99.90;;;2.44;100.00;97193.84;4966745;28;1555;-70
2024/03/24 01:12:23;;;;;;;;;;;3.30;99.90;;;2.35;100.00;97191.44;4960649;28;1516;-70
2024/03/24 01:14:49;;;;;;;;;;;3.30;99.90;;;2.39;100.00;97199.03;4960178;28;1697;-70
2024/03/24 01:17:15;;;;;;;;;;;3.20;99.90;;;2.44;100.00;97191.28;4966213;28;1653;-70
2024/03/24 01:19:41;;;;;;;;;;;3.30;99.90;;;2.42;100.00;97180.25;4958906;28;1587;-70
2024/03/24 01:22:06;;;;;;;;;;;3.30;99.90;;;2.41;100.00;97181.94;4961647;28;1961;-70
2024/03/24 01:24:32;;;;;;;;;;;3.30;99.90;;;2.34;100.00;97169.25;4980036;28;1617;-70
2024/03/24 01:26:58;;;;;;;;;;;3.30;99.90;;;2.43;100.00;97169.94;4960591;28;1972;-69
2024/03/24 01:29:24;;;;;;;;;;;3.40;99.90;;;2.40;100.00;97164.88;4957495;28;1642;-69
2024/03/24 01:31:50;;;;;;;;;;;3.40;99.90;;;2.43;100.00;97166.53;4960719;28;1877;-69
2024/03/24 01:34:15;;;;;;;;;;;3.50;99.90;;;2.53;100.00;97170.63;4960781;28;1603;-69
2024/03/24 01:36:41;;;;;;;;;;;3.50;99.90;;;2.46;100.00;97162.22;4978384;28;1983;-69
2024/03/24 01:39:09;;;;;;;;;;;3.40;99.90;;;2.39;100.00;97155.50;4962571;28;1717;-69
2024/03/24 01:41:36;;;;;;;;;;;3.50;99.90;;;2.43;100.00;97156.31;4963161;28;1726;-69
2024/03/24 01:44:02;;;;;;;;;;;3.50;99.90;;;2.46;100.00;97153.69;4961097;28;1630;-69
2024/03/24 01:46:28;;;;;;;;;;;3.50;99.90;;;2.50;100.00;97145.06;4958265;28;1634;-69
2024/03/24 01:48:54;;;;;;;;;;;3.50;99.90;;;2.44;100.00;97150.28;4977385;28;2003;-69
2024/03/24 01:51:22;;;;;;;;;;;3.50;99.90;;;2.63;100.00;97149.09;4960136;28;2976;-69
2024/03/24 01:53:49;;;;;;;;;;;3.50;99.90;;;2.61;100.00;97145.72;4974875;28;1625;-69
2024/03/24 01:56:16;;;;;;;;;;;3.40;99.90;;;2.59;100.00;97133.81;4960684;28;1391;-69
2024/03/24 01:58:41;;;;;;;;;;;3.50;99.90;;;2.57;100.00;97128.72;4978613;28;1455;-69
2024/03/24 02:01:10;;;;;;;;;;;3.40;99.90;;;2.62;100.00;97128.63;4994525;28;1769;-70
2024/03/24 02:03:37;;;;;;;;;;;3.40;99.90;;;2.56;100.00;97119.34;4976908;28;2191;-69
2024/03/24 02:06:04;;;;;;;;;;;3.40;99.90;;;2.68;100.00;97119.13;4962539;28;1429;-70
2024/03/24 02:08:31;;;;;;;;;;;3.50;99.90;;;2.65;100.00;97118.34;4962430;28;2658;-69
2024/03/24 02:11:00;;;;;;;;;;;3.40;99.90;;;2.58;100.00;97111.63;4962056;28;1621;-70
2024/03/24 02:13:26;;;;;;;;;;;3.50;99.90;;;2.55;100.00;97104.00;4960202;28;2715;-69
2024/03/24 02:15:52;;;;;;;;;;;3.50;99.90;;;2.70;100.00;97096.03;4945249;28;1828;-69
2024/03/24 02:18:18;;;;;;;;;;;3.50;99.90;;;2.48;100.00;97093.84;4962985;28;1423;-70
2024/03/24 02:20:44;;;;;;;;;;;3.50;99.90;;;2.55;100.00;97091.19;4961438;28;1571;-69
2024/03/24 02:23:10;;;;;;;;;;;3.60;99.90;;;2.49;100.00;97104.97;4947599;28;2255;-70
2024/03/24 02:25:36;;;;;;;;;;;3.50;99.90;;;2.48;100.00;97093.00;4961927;28;1778;-69
2024/03/24 02:28:02;;;;;;;;;;;3.50;99.90;;;2.49;100.00;97092.16;4960198;28;3525;-69
2024/03/24 02:30:28;;;;;;;;;;;3.50;99.90;;;2.55;100.00;97099.72;4961396;28;1631;-70
2024/03/24 02:32:54;;;;;;;;;;;3.50;99.90;;;2.67;100.00;97103.78;4978680;28;1601;-69
2024/03/24 02:35:20;;;;;;;;;;;3.50;99.90;;;2.54;100.00;97110.00;4958710;28;2172;-69
2024/03/24 02:37:45;;;;;;;;;;;3.50;99.90;;;2.50;100.00;97107.47;4962183;28;2449;-69
2024/03/24 02:40:12;;;;;;;;;;;3.40;99.90;;;2.30;100.00;97107.84;4960014;28;1268;-68
2024/03/24 02:42:38;;;;;;;;;;;3.40;99.90;;;2.28;100.00;97109.59;4962356;28;1580;-69
2024/03/24 02:45:06;;;;;;;;;;;3.30;99.90;;;2.28;100.00;97106.16;4959724;28;1747;-69
2024/03/24 02:47:32;;;;;;;;;;;3.30;99.90;;;2.25;100.00;97112.19;4962681;28;1978;-69
2024/03/24 02:49:59;;;;;;;;;;;3.30;99.90;;;2.36;100.00;97121.41;4993640;28;1896;-69
2024/03/24 02:52:24;;;;;;;;;;;3.20;99.90;;;2.32;100.00;97102.69;4962336;28;2051;-69
2024/03/24 02:54:50;;;;;;;;;;;3.30;99.90;;;2.29;100.00;97093.34;4960811;28;1619;-69
2024/03/24 02:57:16;;;;;;;;;;;3.20;99.90;;;2.28;100.00;97094.22;4960575;28;1378;-69
2024/03/24 02:59:42;;;;;;;;;;;3.30;99.90;;;2.30;100.00;97100.19;4945965;28;1430;-69
2024/03/24 03:02:08;;;;;;;;;;;3.20;99.90;;;2.30;100.00;97099.31;4963539;28;1326;-69
2024/03/24 03:04:33;;;;;;;;;;;3.20;99.90;;;2.35;100.00;97109.47;4963997;28;1702;-69
2024/03/24 03:07:00;;;;;;;;;;;3.20;99.90;;;2.38;100.00;97097.47;4963534;28;3131;-69
2024/03/24 03:09:29;;;;;;;;;;;3.30;99.90;;;2.37;100.00;97094.91;4964121;28;1631;-69
2024/03/24 03:11:55;;;;;;;;;;;3.30;99.90;;;2.42;100.00;97082.91;4948847;28;1634;-69
2024/03/24 03:14:21;;;;;;;;;;;3.30;99.90;;;2.45;100.00;97072.59;4960741;28;1755;-69
2024/03/24 03:16:47;;;;;;;;;;;3.40;99.90;;;2.45;100.00;97086.22;4980871;28;2649;-69
2024/03/24 03:19:13;;;;;;;;;;;3.30;99.90;;;2.37;100.00;97079.56;4964716;28;1637;-69
2024/03/24 03:21:39;;;;;;;;;;;3.40;99.90;;;2.37;100.00;97100.03;4993596;28;2224;-69
2024/03/24 03:24:05;;;;;;;;;;;3.30;99.90;;;2.41;100.00;97087.16;4966350;28;1532;-69
2024/03/24 03:26:31;;;;;;;;;;;3.30;99.90;;;2.39;100.00;97083.78;4965093;28;1596;-69
2024/03/24 03:28:57;;;;;;;;;;;3.30;99.90;;;2.35;100.00;97084.72;4963599;28;1903;-69
2024/03/24 03:31:23;;;;;;;;;;;3.30;99.90;;;2.34;100.00;97080.47;4966645;28;1623;-69
2024/03/24 03:33:49;;;;;;;;;;;3.30;99.90;;;2.35;100.00;97087.28;4963497;28;2112;-69
2024/03/24 03:36:14;;;;;;;;;;;3.30;99.90;;;2.34;100.00;97083.03;4967583;28;1368;-69
2024/03/24 03:38:40;;;;;;;;;;;3.30;99.90;;;2.37;100.00;97071.88;4963554;28;1460;-69
2024/03/24 03:41:06;;;;;;;;;;;3.30;99.90;;;2.32;100.00;97066.84;4965685;28;1413;-70
2024/03/24 03:43:32;;;;;;;;;;;3.40;99.90;;;2.33;100.00;97068.53;4964368;28;1917;-69
2024/03/24 03:45:58;;;;;;;;;;;3.30;99.90;;;2.36;100.00;97075.31;4964421;28;1570;-69
2024/03/24 03:48:24;;;;;;;;;;;3.40;99.90;;;2.39;100.00;97073.53;4966220;28;3273;-69
2024/03/24 03:50:50;;;;;;;;;;;3.40;99.90;;;2.33;100.00;97068.53;4964406;28;1634;-69
2024/03/24 03:53:21;;;;;;;;;;;3.30;99.90;;;2.32;100.00;97064.28;4963144;28;1631;-69
2024/03/24 03:55:51;;;;;;;;;;;3.40;99.90;;;2.36;100.00;97070.19;4965181;28;1888;-69
2024/03/24 03:58:18;;;;;;;;;;;3.40;99.90;;;2.38;100.00;97074.41;4964529;28;1655;-69
2024/03/24 04:00:44;;;;;;;;;;;3.40;99.90;;;2.37;100.00;97065.03;4979829;28;1583;-69
2024/03/24 04:03:11;;;;;;;;;;;3.40;99.90;;;2.40;100.00;97062.44;4981502;28;1885;-69
2024/03/24 04:05:40;;;;;;;;;;;3.40;99.90;;;2.38;100.00;97060.78;4965337;28;1638;-69
2024/03/24 04:08:08;;;;;;;;;;;3.40;99.90;;;2.42;100.00;97063.25;4968550;28;1919;-69
2024/03/24 04:10:36;;;;;;;;;;;3.40;99.90;;;2.42;100.00;97072.66;4966416;28;1607;-69
2024/03/24 04:13:03;;;;;;;;;;;3.50;99.90;;;2.46;100.00;97070.00;4945923;28;2443;-69
2024/03/24 04:15:30;;;;;;;;;;;3.50;99.90;;;2.41;100.00;97063.25;4982262;28;1613;-69
2024/03/24 04:17:56;;;;;;;;;;;3.50;99.90;;;2.40;100.00;97065.00;4963229;28;2172;-70
2024/03/24 04:20:22;;;;;;;;;;;3.50;99.90;;;2.36;100.00;97063.34;4963879;28;1584;-70
2024/03/24 04:22:51;;;;;;;;;;;3.30;99.90;;;2.44;100.00;97074.31;4960084;28;2359;-70
2024/03/24 04:25:18;;;;;;;;;;;3.40;99.90;;;2.40;100.00;97085.47;4967268;28;2545;-70
2024/03/24 04:27:43;;;;;;;;;;;3.30;99.90;;;2.42;100.00;97085.47;4961078;28;3795;-69
2024/03/24 04:30:12;;;;;;;;;;;3.40;99.90;;;2.41;100.00;97087.16;4968549;28;1846;-70
2024/03/24 04:32:38;;;;;;;;;;;3.40;99.90;;;2.39;100.00;97083.78;4977640;28;1619;-69
2024/03/24 04:35:04;;;;;;;;;;;3.40;99.90;;;2.42;100.00;97080.34;4994344;28;2566;-70
2024/03/24 04:37:30;;;;;;;;;;;3.40;99.90;;;2.47;100.00;97081.09;4963341;28;1654;-70
2024/03/24 04:39:56;;;;;;;;;;;3.40;99.90;;;2.38;100.00;97076.97;4962888;28;2470;-70
2024/03/24 04:42:22;;;;;;;;;;;3.40;99.90;;;2.43;100.00;97067.47;4962864;28;1762;-70
2024/03/24 04:45:07;;;;;;;;;;;3.40;99.90;;;2.48;100.00;97068.22;4977028;28;1320;-69
2024/03/24 04:47:33;;;;;;;;;;;3.40;99.90;;;2.57;100.00;97074.06;4963279;28;1969;-70
2024/03/24 04:49:59;;;;;;;;;;;3.40;99.90;;;2.49;100.00;97076.78;4978997;28;1737;-70
2024/03/24 04:52:25;;;;;;;;;;;3.40;99.90;;;2.45;100.00;97075.16;4961416;28;2232;-70
2024/03/24 04:54:51;;;;;;;;;;;3.40;99.90;;;2.54;100.00;97074.97;4944999;28;1861;-70
2024/03/24 04:57:17;;;;;;;;;;;3.40;99.90;;;2.56;100.00;97059.59;4945544;28;1314;-70
2024/03/24 04:59:43;;;;;;;;;;;3.40;99.90;;;2.52;100.00;97066.47;4964317;28;1788;-70
2024/03/24 05:02:09;;;;;;;;;;;3.40;99.90;;;2.63;100.00;97059.44;4962175;28;1318;-70
2024/03/24 05:04:36;;;;;;;;;;;3.40;99.90;;;2.46;100.00;97054.63;4947650;28;1411;-68
2024/03/24 05:07:02;;;;;;;;;;;3.40;99.90;;;2.41;100.00;97043.59;4959716;28;3143;-68
2024/03/24 05:09:28;;;;;;;;;;;3.50;99.90;;;2.35;100.00;97040.31;4978200;28;2059;-70
2024/03/24 05:11:54;;;;;;;;;;;3.50;99.90;;;2.25;100.00;97031.97;4948276;28;1600;-70
2024/03/24 05:14:20;;;;;;;;;;;3.40;99.90;;;2.31;100.00;97042.09;4962432;28;1591;-70
2024/03/24 05:16:46;;;;;;;;;;;3.30;99.90;;;2.25;100.00;97053.28;4966535;28;1475;-70
2024/03/24 05:19:12;;;;;;;;;;;3.30;99.90;;;2.38;100.00;97051.38;4976010;28;1492;-70
2024/03/24 05:21:37;;;;;;;;;;;3.30;99.90;;;2.39;100.00;97052.19;4962017;28;2120;-70
2024/03/24 05:24:06;;;;;;;;;;;3.40;99.90;;;2.34;100.00;97051.44;4961274;28;1607;-70
2024/03/24 05:26:33;;;;;;;;;;;3.30;99.90;;;2.47;100.00;97069.13;4962665;28;1358;-70
2024/03/24 05:29:02;;;;;;;;;;;3.40;99.90;;;2.40;100.00;97065.00;4960884;28;1899;-69
2024/03/24 05:31:28;;;;;;;;;;;3.30;99.90;;;2.40;100.00;97048.78;4959939;28;1590;-70
2024/03/24 05:33:53;;;;;;;;;;;3.40;99.90;;;2.44;100.00;97052.94;4947182;28;1626;-70
2024/03/24 05:36:19;;;;;;;;;;;3.40;99.90;;;2.39;100.00;97044.53;4959397;28;1809;-70
2024/03/24 05:38:45;;;;;;;;;;;3.40;99.90;;;2.47;100.00;97042.66;4963020;28;1574;-70
2024/03/24 05:41:11;;;;;;;;;;;3.40;99.90;;;2.42;100.00;97039.34;4959038;28;1626;-70
2024/03/24 05:43:37;;;;;;;;;;;3.40;99.90;;;2.38;100.00;97045.41;4962230;28;1255;-70
2024/03/24 05:46:07;;;;;;;;;;;3.40;99.90;;;2.47;100.00;97037.53;4960572;28;1736;-69
2024/03/24 05:48:35;;;;;;;;;;;3.40;99.90;;;2.48;100.00;97037.50;4963097;28;3313;-70
2024/03/24 05:51:03;;;;;;;;;;;3.40;99.90;;;2.53;100.00;97050.22;4977417;28;1591;-70
2024/03/24 05:53:29;;;;;;;;;;;3.40;99.90;;;2.43;100.00;97035.91;4961478;28;1517;-70
2024/03/24 05:55:59;;;;;;;;;;;3.40;99.90;;;2.42;100.00;97039.34;4961414;28;1707;-68
2024/03/24 05:58:26;;;;;;;;;;;3.50;99.90;;;2.58;100.00;97061.25;4993026;28;1543;-68
2024/03/24 06:00:51;;;;;;;;;;;3.40;99.90;;;2.45;100.00;97041.84;4991856;28;1613;-70
2024/03/24 06:03:17;;;;;;;;;;;3.40;99.90;;;2.60;100.00;97040.69;4977021;28;2070;-70
2024/03/24 06:05:43;;;;;;;;;;;3.40;99.90;;;2.59;100.00;97041.59;4959273;28;1419;-68
2024/03/24 06:08:09;;;;;;;;;;;3.60;99.90;;;2.67;100.00;97045.69;4960108;28;1982;-69
2024/03/24 06:10:36;;;;;;;;;;;3.60;99.90;;;2.77;100.00;97050.63;4945718;28;1684;-69
2024/03/24 06:13:02;;;;;;;;;;;3.60;99.90;;;2.75;100.00;97029.31;4965901;28;1553;-69
2024/03/24 06:15:28;;;;;;;;;;;3.70;99.90;;;2.77;100.00;97045.50;4961872;28;1915;-70
2024/03/24 06:17:55;;;;;;;;;;;3.70;99.90;;;2.78;100.00;97039.50;4960320;28;2491;-70
2024/03/24 06:20:21;;;;;;;;;;;3.70;99.90;;;2.77;100.00;97041.22;4959752;28;2393;-70
2024/03/24 06:22:46;;;;;;;;;;;3.70;99.90;;;2.91;100.00;97036.63;4993664;28;2590;-69
2024/03/24 06:25:12;;;;;;;;;;;3.70;99.90;;;2.78;100.00;97047.19;4948171;28;1683;-70
2024/03/24 06:27:38;;;;;;;;;;;3.70;99.90;;;2.89;100.00;97038.38;4959478;28;1907;-70
2024/03/24 06:30:04;;;;;;;;;;;3.80;99.90;;;2.93;100.00;97036.63;4947242;28;1908;-69
2024/03/24 06:32:31;;;;;;;;;;;3.80;99.90;;;2.96;100.00;97030.59;4959870;28;1840;-70
2024/03/24 06:34:57;;;;;;;;;;;3.80;99.90;;;3.00;100.00;97030.47;4957435;28;3267;-68
2024/03/24 06:37:23;;;;;;;;;;;3.80;99.90;;;3.00;100.00;97037.34;4966203;28;2428;-69
2024/03/24 06:39:51;;;;;;;;;;;3.80;99.90;;;3.00;100.00;97047.59;4969485;28;1626;-70
2024/03/24 06:42:17;;;;;;;;;;;3.80;99.90;;;3.13;100.00;97033.63;4966659;28;1822;-69
2024/03/24 06:44:45;;;;;;;;;;;3.90;99.90;;;2.97;100.00;97017.75;4966344;28;1631;-70
2024/03/24 06:47:11;;;;;;;;;;;3.90;99.90;;;2.94;100.00;97033.16;4964234;28;1590;-69
2024/03/24 06:49:37;;;;;;;;;;;3.90;99.90;;;2.96;100.00;97021.16;4962151;28;1910;-70
2024/03/24 06:52:03;;;;;;;;;;;3.90;99.90;;;3.11;100.00;97030.25;4965170;28;2134;-70
2024/03/24 06:54:29;;;;;;;;;;;3.90;99.90;;;3.06;100.00;97035.50;4963705;28;1627;-70
2024/03/24 06:56:56;;;;;;;;;;;3.90;99.90;;;3.05;100.00;97031.22;4997558;28;1732;-70
2024/03/24 06:59:22;;;;;;;;;;;4.00;99.90;;;3.13;100.00;97024.22;4997297;28;1622;-70
2024/03/24 07:01:48;;;;;;;;;;;3.90;99.90;;;3.05;100.00;97020.97;4966199;28;1412;-69
2024/03/24 07:04:14;;;;;;;;;;;3.90;99.90;;;3.10;100.00;97015.72;4994039;28;2108;-69
2024/03/24 07:06:40;;;;;;;;;;;4.00;99.90;;;3.08;100.00;97008.09;4962656;28;1850;-69
2024/03/24 07:09:06;;;;;;;;;;;4.00;99.90;;;3.25;100.00;97010.28;4964328;28;1974;-69
2024/03/24 07:11:32;;;;;;;;;;;4.00;99.90;;;3.22;100.00;97015.47;4995775;28;1602;-69
2024/03/24 07:13:58;;;;;;;;;;;4.10;99.90;;;3.26;100.00;97013.66;4950534;28;1604;-69
2024/03/24 07:16:24;;;;;;;;;;;4.00;99.90;;;3.18;100.00;97018.16;4995720;28;1669;-69
2024/03/24 07:18:49;;;;;;;;;;;4.00;99.90;;;3.18;100.00;97006.16;4961799;28;3356;-69
2024/03/24 07:21:15;;;;;;;;;;;4.10;99.90;;;3.41;100.00;97004.78;4966852;28;1572;-69
2024/03/24 07:23:41;;;;;;;;;;;4.10;99.90;;;3.32;100.00;97005.84;4965273;28;1605;-69
2024/03/24 07:26:07;;;;;;;;;;;4.10;99.90;;;3.18;100.00;97016.41;4995595;28;1856;-69
2024/03/24 07:28:33;;;;;;;;;;;4.20;99.90;;;3.23;100.00;97013.75;4966464;28;1976;-69
2024/03/24 07:30:59;;;;;;;;;;;4.20;99.90;;;3.33;100.00;97016.09;4964188;28;1591;-69
2024/03/24 07:33:25;;;;;;;;;;;4.10;99.90;;;3.36;100.00;97015.16;4963983;28;1957;-69
2024/03/24 07:35:50;;;;;;;;;;;4.20;99.90;;;3.24;100.00;97008.59;4965703;28;1412;-69
2024/03/24 07:38:16;;;;;;;;;;;4.30;99.90;;;3.41;100.00;97017.63;4981567;28;1363;-69
2024/03/24 07:40:43;;;;;;;;;;;4.20;99.90;;;3.21;100.00;97031.72;4964748;28;1636;-69
2024/03/24 07:43:11;;;;;;;;;;;4.20;99.90;;;3.27;100.00;97025.63;4965137;28;1609;-69
2024/03/24 07:45:38;;;;;;;;;;;4.20;99.90;;;3.21;100.00;97023.19;4964859;28;1585;-69
2024/03/24 07:48:06;;;;;;;;;;;4.20;99.90;;;3.30;100.00;97036.66;4977019;28;2069;-70
2024/03/24 07:50:32;;;;;;;;;;;4.20;99.90;;;3.14;100.00;97046.41;4995879;28;1578;-69
2024/03/24 07:52:58;;;;;;;;;;;4.10;99.90;;;3.13;100.00;97039.59;4981050;28;1586;-69
2024/03/24 07:55:24;;;;;;;;;;;4.20;99.90;;;3.17;100.00;97055.78;4962200;28;1626;-69
2024/03/24 07:57:50;;;;;;;;;;;4.10;99.90;;;3.21;100.00;97054.81;4964262;28;1564;-69
2024/03/24 08:00:16;;;;;;;;;;;4.20;99.90;;;3.12;100.00;97052.44;4964804;28;1580;-69
2024/03/24 08:02:42;;;;;;;;;;;4.10;99.90;;;3.19;100.00;97064.25;4947042;28;3310;-69
2024/03/24 08:05:08;;;;;;;;;;;4.10;99.90;;;3.21;100.00;97065.06;4962893;28;1816;-69
2024/03/24 08:07:34;;;;;;;;;;;4.00;99.90;;;3.17;100.00;97063.47;4964455;28;1972;-69
2024/03/24 08:10:00;;;;;;;;;;;4.10;99.90;;;3.19;100.00;97076.25;4963297;28;1721;-69
2024/03/24 08:12:25;;;;;;;;;;;4.10;99.90;;;3.25;100.00;97061.56;4962138;28;1745;-69
2024/03/24 08:14:51;;;;;;;;;;;4.10;99.90;;;3.19;100.00;97066.81;4946035;28;2232;-69
2024/03/24 08:17:17;;;;;;;;;;;4.10;99.90;;;3.13;100.00;97072.94;4960801;28;2449;-69
2024/03/24 08:19:43;;;;;;;;;;;4.10;99.90;;;3.11;100.00;97066.16;4961200;28;1514;-69
2024/03/24 08:22:08;;;;;;;;;;;4.10;99.90;;;3.23;100.00;97078.72;4961878;28;3063;-69
2024/03/24 08:24:34;;;;;;;;;;;4.20;99.90;;;3.33;100.00;97085.34;4996215;28;2643;-69
2024/03/24 08:27:00;;;;;;;;;;;4.10;99.90;;;3.27;100.00;97072.66;4962660;28;2567;-69
2024/03/24 08:29:26;;;;;;;;;;;4.10;99.90;;;3.34;100.00;97068.22;4963790;28;1981;-69
2024/03/24 08:31:52;;;;;;;;;;;4.10;99.90;;;3.37;100.00;97073.28;4976194;28;1540;-69
2024/03/24 08:34:18;;;;;;;;;;;4.20;99.90;;;3.33;100.00;97069.94;4960313;28;2468;-69
2024/03/24 08:36:44;;;;;;;;;;;4.20;99.90;;;3.38;100.00;97076.72;4960000;28;1943;-69
2024/03/24 08:39:09;;;;;;;;;;;4.20;99.90;;;3.40;100.00;97064.66;4962100;28;1595;-69
2024/03/24 08:41:35;;;;;;;;;;;4.30;99.90;;;3.46;100.00;97074.81;4959649;28;1655;-69
2024/03/24 08:44:02;;;;;;;;;;;4.30;99.90;;;3.36;100.00;97061.34;4961971;28;1623;-69
2024/03/24 08:46:29;;;;;;;;;;;4.30;99.90;;;3.41;100.00;97074.91;4959894;28;1790;-69
2024/03/24 08:48:55;;;;;;;;;;;4.30;99.90;;;3.59;100.00;97085.66;4961443;28;3223;-69
2024/03/24 08:51:21;;;;;;;;;;;4.30;99.90;;;3.64;100.00;97081.25;4976978;28;1748;-69
2024/03/24 08:54:05;;;;;;;;;;;4.30;99.90;;;3.69;100.00;97093.06;4961258;28;1345;-69
2024/03/24 08:56:31;;;;;;;;;;;4.40;99.90;;;3.62;100.00;97091.53;4981164;28;1570;-70
2024/03/24 08:58:57;;;;;;;;;;;4.40;99.90;;;3.66;100.00;97077.75;4966792;28;1547;-69
2024/03/24 09:01:23;;;;;;;;;;;4.40;99.90;;;3.60;100.00;97065.06;4976284;28;1580;-69
2024/03/24 09:03:49;;;;;;;;;;;4.40;99.90;;;3.74;100.00;97095.53;4960398;28;2004;-69
2024/03/24 09:06:16;;;;;;;;;;;4.40;99.90;;;3.81;100.00;97065.44;4960431;28;1606;-69
2024/03/24 09:08:42;;;;;;;;;;;4.50;99.90;;;3.71;100.00;97060.53;4959020;28;1906;-69
2024/03/24 09:11:09;;;;;;;;;;;4.60;99.90;;;3.69;100.00;97054.56;4957733;28;1833;-69
2024/03/24 09:13:38;;;;;;;;;;;4.60;99.90;;;3.91;100.00;97075.47;4962627;28;1572;-69
2024/03/24 09:16:04;;;;;;;;;;;4.60;99.90;;;3.88;100.00;97072.13;4959439;28;2120;-69
2024/03/24 09:18:30;;;;;;;;;;;4.70;99.90;;;3.88;100.00;97078.09;4957936;28;1646;-69
2024/03/24 09:21:01;;;;;;;;;;;4.70;99.90;;;3.89;100.00;97073.81;4959230;28;1613;-69
2024/03/24 09:23:27;;;;;;;;;;;4.60;99.90;;;3.81;100.00;97071.44;4993376;28;1859;-69
2024/03/24 09:25:54;;;;;;;;;;;4.70;99.90;;;3.97;100.00;97095.03;4993867;28;1559;-69
2024/03/24 09:28:19;;;;;;;;;;;4.80;99.90;;;3.92;100.00;97086.56;4959423;28;1983;-69
2024/03/24 09:30:59;;;;;;;;;;;4.70;99.90;;;3.86;100.00;97074.72;4962621;28;3121;-69
2024/03/24 09:33:25;;;;;;;;;;;4.80;99.90;;;3.86;100.00;97073.91;4962869;28;1861;-69
2024/03/24 09:35:53;;;;;;;;;;;4.70;99.90;;;3.89;100.00;97086.66;4961508;28;1694;-69
2024/03/24 09:38:19;;;;;;;;;;;4.60;99.90;;;3.89;100.00;97069.50;4957323;28;1560;-69
2024/03/24 09:40:47;;;;;;;;;;;4.70;99.90;;;4.03;100.00;97068.34;4947313;28;1584;-69
2024/03/24 09:43:14;;;;;;;;;;;4.70;99.90;;;3.86;100.00;97073.91;4947478;28;1337;-70
2024/03/24 09:45:41;;;;;;;;;;;4.80;99.90;;;3.92;100.00;97068.59;4994959;28;2117;-70
2024/03/24 09:48:11;;;;;;;;;;;4.70;99.90;;;3.96;100.00;97085.63;4944445;28;1910;-70
2024/03/24 09:50:38;;;;;;;;;;;4.70;99.90;;;3.92;100.00;97077.16;4976864;28;1681;-69
2024/03/24 09:53:04;;;;;;;;;;;4.80;99.90;;;4.00;100.00;97096.66;4991841;28;1479;-70
2024/03/24 09:55:30;;;;;;;;;;;4.80;99.90;;;4.06;100.00;97088.78;4959511;28;1688;-70
2024/03/24 09:57:56;;;;;;;;;;;4.80;99.90;;;3.96;100.00;97103.59;4978486;28;1920;-69
2024/03/24 10:00:23;;;;;;;;;;;4.70;99.90;;;4.03;100.00;97097.41;4977096;28;2093;-70
2024/03/24 10:02:49;;;;;;;;;;;4.70;99.90;;;3.97;100.00;97095.03;4961913;28;1600;-70
2024/03/24 10:05:17;;;;;;;;;;;4.80;99.90;;;4.17;100.00;97103.09;4961711;28;1532;-70
2024/03/24 10:07:43;;;;;;;;;;;4.80;99.90;;;4.38;100.00;97093.16;4977190;28;1926;-69
2024/03/24 10:10:09;;;;;;;;;;;4.90;99.90;;;4.40;100.00;97083.66;4964468;28;1606;-70
2024/03/24 10:12:35;;;;;;;;;;;5.00;99.90;;;4.35;100.00;97088.91;4968683;28;1764;-69
2024/03/24 10:15:22;;;;;;;;;;;5.00;99.90;;;4.08;100.00;97090.47;4967727;28;1728;-70
2024/03/24 10:18:18;;;;;;;;;;;5.00;99.90;;;4.13;100.00;97096.34;4981993;28;1646;-70
2024/03/24 10:20:45;;;;;;;;;;;5.00;99.90;;;4.15;100.00;97088.56;4956048;28;1763;-70
2024/03/24 10:23:13;;;;;;;;;;;4.90;99.90;;;4.20;100.00;97099.59;4965844;28;3787;-70
2024/03/24 10:25:39;;;;;;;;;;;4.90;99.90;;;4.11;100.00;97102.38;4965194;28;1708;-69
2024/03/24 10:28:05;;;;;;;;;;;4.90;99.90;;;3.97;100.00;97105.28;4966121;28;2059;-70
2024/03/24 10:30:31;;;;;;;;;;;4.90;99.90;;;3.91;100.00;97082.31;4950629;28;1578;-70
2024/03/24 10:32:57;;;;;;;;;;;4.90;99.90;;;4.05;100.00;97092.25;4983919;28;1603;-70
2024/03/24 10:35:23;;;;;;;;;;;4.90;99.90;;;4.03;100.00;97083.75;4967195;28;2575;-70
2024/03/24 10:37:49;;;;;;;;;;;5.00;99.90;;;4.18;100.00;97094.47;4967713;28;1599;-70
2024/03/24 10:40:16;;;;;;;;;;;4.90;99.90;;;4.30;100.00;97069.38;4967265;28;1449;-70
2024/03/24 10:42:54;;;;;;;;;;;5.10;99.90;;;4.10;100.00;97106.66;4966905;28;1424;-70
2024/03/24 10:45:25;;;;;;;;;;;5.00;99.90;;;4.24;100.00;97090.91;4981775;28;1690;-69
2024/03/24 10:48:00;;;;;;;;;;;5.00;99.90;;;4.35;100.00;97083.75;4967684;28;1985;-70
2024/03/24 10:50:27;;;;;;;;;;;5.00;99.90;;;4.66;100.00;97077.84;4969030;28;2201;-70
2024/03/24 10:52:56;;;;;;;;;;;5.30;99.90;;;4.71;100.00;97070.00;4967222;28;1603;-67
2024/03/24 10:55:23;;;;;;;;;;;5.30;99.90;;;4.70;100.00;97070.88;4983389;28;1776;-68
2024/03/24 10:57:49;;;;;;;;;;;5.30;99.90;;;4.77;100.00;97070.69;4968532;28;2473;-68
2024/03/24 11:00:16;;;;;;;;;;;5.40;99.90;;;4.78;100.00;97061.22;4966466;28;1376;-68
2024/03/24 11:02:42;;;;;;;;;;;5.30;99.90;;;4.53;100.00;97068.75;4969175;28;1636;-68
2024/03/24 11:05:09;;;;;;;;;;;5.40;99.90;;;4.54;100.00;97053.31;5000069;28;1656;-68
2024/03/24 11:07:39;;;;;;;;;;;5.40;99.90;;;4.46;100.00;97074.94;4968599;28;1904;-70
2024/03/24 11:10:06;;;;;;;;;;;5.20;99.90;;;4.37;100.00;97064.03;4970533;28;1602;-70
2024/03/24 11:12:35;;;;;;;;;;;5.10;99.90;;;4.44;100.00;97069.84;4959313;28;2965;-68
2024/03/24 11:15:05;;;;;;;;;;;5.20;99.90;;;4.43;100.00;97064.75;4955639;28;1613;-70
2024/03/24 11:17:31;;;;;;;;;;;5.20;99.90;;;4.43;100.00;97062.19;4957339;28;1492;-68
2024/03/24 11:20:01;;;;;;;;;;;5.30;99.90;;;4.47;100.00;97061.19;4966461;28;1326;-70
2024/03/24 11:22:42;;;;;;;;;;;5.20;99.90;;;4.71;100.00;97054.56;4962473;28;1511;-70
2024/03/24 11:25:08;;;;;;;;;;;5.30;99.90;;;4.75;100.00;97058.75;4963121;28;1393;-70
2024/03/24 11:27:44;;;;;;;;;;;5.30;99.90;;;4.86;100.00;97068.72;4960872;28;2128;-69
2024/03/24 11:30:15;;;;;;;;;;;5.40;99.90;;;4.83;100.00;97043.94;4979952;28;2275;-69
2024/03/24 11:32:55;;;;;;;;;;;5.50;99.90;;;5.16;100.00;97044.69;4977564;28;1479;-69